GMT,Max TemperatureF,Mean TemperatureF,Min TemperatureF,Max Dew PointF,MeanDew PointF,Min DewpointF,Max Humidity, Mean Humidity, Min Humidity, Max Sea Level PressureIn, Mean Sea Level PressureIn, Min Sea Level PressureIn, Max VisibilityMiles, Mean VisibilityMiles, Min VisibilityMiles, Max Wind SpeedMPH, Mean Wind SpeedMPH, Max Gust SpeedMPH,PrecipitationIn, CloudCover, Events, WindDirDegrees
2012-10-1,61,56,50,55,50,46,100,78,55,29.82,29.76,29.71,19,8,6,20,11,,0.02,3,Rain,217
2012-10-2,57,52,47,55,51,42,100,87,65,29.77,29.62,29.50,19,8,4,18,10,,0.31,4,Rain-Tornado,191
2012-10-3,59,52,46,46,44,40,87,70,42,29.60,29.57,29.52,18,7,6,23,12,29,0.04,2,Rain,241
2012-10-4,59,50,41,48,45,36,100,76,63,29.74,29.71,29.61,6,6,6,16,7,,0.00,2,Rain,249
2012-10-5,54,51,48,48,46,43,94,80,59,29.78,29.70,29.54,12,6,6,12,7,,0.00,1,Rain,248
2012-10-6,58,50,43,54,47,40,100,76,54,30.06,29.92,29.80,16,7,6,13,6,,0.00,2,Rain,319
2012-10-7,57,50,42,48,45,40,91,73,50,30.22,30.19,30.09,19,10,6,6,3,,0.00,1,,355
2012-10-8,58,48,38,54,49,38,100,90,68,30.13,29.97,29.92,9,5,3,7,3,,0.00,2,Rain,137
2012-10-9,54,46,39,46,44,39,100,83,59,30.08,30.05,30.01,16,5,0,10,4,,0.00,3,Fog,151
2012-10-10,54,48,43,52,48,42,94,88,76,30.04,29.93,29.85,12,6,3,15,8,,0.00,6,Rain,158
2012-10-11,55,52,48,55,50,44,100,94,75,29.81,29.59,29.47,9,4,1,13,8,,0.12,5,Rain,154
2012-10-12,55,48,42,51,42,38,88,72,45,29.72,29.66,29.49,19,8,2,16,12,24,0.00,2,Rain,267
2012-10-13,51,44,38,46,42,37,100,89,64,29.68,29.66,29.64,16,7,5,10,3,,0.24,2,Rain,302
2012-10-14,52,42,33,46,41,32,100,85,57,29.65,29.63,29.62,11,7,6,9,3,,0.01,2,Rain,345
2012-10-15,55,46,36,46,44,38,100,86,63,29.63,29.51,29.40,16,7,6,13,4,,0.03,2,Rain,171
2012-10-16,54,48,41,48,41,37,95,73,44,29.57,29.49,29.26,11,6,3,15,9,,0.04,1,Rain,259
2012-10-17,60,50,39,52,47,39,100,77,48,29.50,29.30,29.21,17,8,6,22,8,45,0.02,2,Fog-Rain,167
2012-10-18,56,50,44,52,50,45,100,90,82,29.62,29.47,29.36,19,7,4,14,7,,0.02,4,Fog-Rain,167
2012-10-19,57,50,43,52,48,43,100,90,70,29.80,29.75,29.69,14,7,3,9,6,,0.00,1,,159
2012-10-20,60,49,38,52,47,40,100,83,53,30.08,29.96,29.82,19,7,0,9,4,,0.00,3,Fog,202
2012-10-21,54,46,37,50,44,38,100,97,73,30.18,30.14,30.07,8,2,0,7,4,,0.00,6,Fog,162
2012-10-22,55,46,38,55,52,44,100,98,89,30.26,30.19,30.15,10,4,1,6,4,,0.01,6,Rain,352
2012-10-23,57,54,52,57,55,52,100,97,88,30.32,30.29,30.27,6,3,1,7,3,,0.00,7,Fog-Rain,331
2012-10-24,58,56,54,55,53,51,94,89,78,30.27,30.17,30.12,16,7,5,10,6,,0.00,5,Rain,67
2012-10-25,52,50,48,50,47,38,94,83,58,30.15,30.09,30.06,19,8,6,12,5,,0.00,6,,75
2012-10-26,48,42,37,37,34,25,93,71,45,30.10,30.04,30.01,12,6,6,15,8,,0.00,2,Rain,20
2012-10-27,46,40,33,36,34,26,81,67,49,30.24,30.19,30.09,19,8,6,18,12,,0.00,1,,344
2012-10-28,50,46,41,48,45,35,94,84,71,30.12,29.86,29.73,19,8,6,14,8,,0.03,6,Rain,271
2012-10-29,54,48,42,50,45,39,100,88,61,29.78,29.75,29.71,19,7,4,13,5,,0.02,2,Rain,319
2012-10-30,50,46,42,46,42,38,87,81,66,29.74,29.57,29.34,12,6,6,16,8,,0.00,3,Rain,234
2012-10-31,52,47,42,46,43,40,100,87,69,29.24,28.96,28.83,19,7,6,20,12,30,0.12,4,Rain,183